Time;durP1;ratioP1;P1;durP2;ratioP2;P2;SDS_P1;SDS_P2;PMS_P1;PMS_P2;Temp;Humidity;BMP_temperature;BMP_pressure;BME280_temperature;BME280_humidity;BME280_pressure;Samples;Min_cycle;Max_cycle;Signal;HPM_P1;HPM_P2
2021/01/09 00:00:52;;;;;;;;;12.50;11.75;;;;;13.72;51.29;98335.03;5975539;22;102485;-85
2021/01/09 00:03:19;;;;;;;;;14.25;11.00;;;;;13.71;51.32;98335.25;5945193;22;102982;-81
2021/01/09 00:05:45;;;;;;;;;14.50;12.00;;;;;13.70;50.96;98337.13;5976277;22;104431;-84
2021/01/09 00:08:12;;;;;;;;;15.75;12.25;;;;;13.68;51.89;98341.97;5972726;22;102812;-84
2021/01/09 00:10:39;;;;;;;;;13.25;10.75;;;;;13.68;51.38;98346.56;5976292;23;102518;-84
2021/01/09 00:13:06;;;;;;;;;11.75;11.50;;;;;13.66;51.13;98345.97;5943100;22;102597;-84
2021/01/09 00:15:33;;;;;;;;;13.50;12.25;;;;;13.65;50.98;98344.28;5973252;23;104308;-84
2021/01/09 00:17:59;;;;;;;;;18.00;12.00;;;;;13.64;51.52;98348.09;5972753;22;102835;-84
2021/01/09 00:20:26;;;;;;;;;12.00;9.25;;;;;13.63;50.93;98343.72;5990945;23;102716;-84
2021/01/09 00:22:53;;;;;;;;;12.50;11.00;;;;;13.62;51.06;98339.31;5975143;22;102830;-84
2021/01/09 00:25:20;;;;;;;;;12.00;11.00;;;;;13.59;51.58;98340.63;5977689;22;103985;-84
2021/01/09 00:27:46;;;;;;;;;12.50;12.00;;;;;13.59;51.10;98345.22;5976778;23;102505;-83
2021/01/09 00:30:14;;;;;;;;;11.75;9.25;;;;;13.58;51.14;98343.53;5965652;23;102617;-84
2021/01/09 00:32:41;;;;;;;;;13.50;10.75;;;;;13.57;51.77;98336.44;5973953;23;102765;-84
2021/01/09 00:35:11;;;;;;;;;9.00;7.75;;;;;13.55;50.93;98349.44;5972711;22;104058;-84
2021/01/09 00:37:41;;;;;;;;;10.50;9.75;;;;;13.53;51.74;98336.06;5969603;23;102922;-84
2021/01/09 00:40:11;;;;;;;;;11.50;10.00;;;;;13.53;51.26;98341.50;5973172;22;102582;-84
2021/01/09 00:42:39;;;;;;;;;13.00;11.00;;;;;13.49;51.26;98345.75;5965594;22;102918;-84
2021/01/09 00:45:08;;;;;;;;;10.25;9.00;;;;;13.49;51.88;98344.91;5966304;22;103599;-84
2021/01/09 00:47:35;;;;;;;;;11.00;10.00;;;;;13.48;51.19;98346.78;5966322;22;102514;-84
2021/01/09 00:50:05;;;;;;;;;13.25;11.75;;;;;13.47;50.88;98341.56;5967326;22;102615;-84
2021/01/09 00:52:34;;;;;;;;;14.00;11.50;;;;;13.45;51.33;98351.84;5972995;23;102761;-84
2021/01/09 00:55:07;;;;;;;;;12.50;10.50;;;;;13.45;51.15;98346.41;5972200;22;103100;-84
2021/01/09 00:57:34;;;;;;;;;10.25;9.50;;;;;13.43;51.22;98352.06;5977177;22;102924;-84
2021/01/09 01:00:02;;;;;;;;;12.25;10.00;;;;;13.43;51.68;98348.50;5965211;23;102582;-84
2021/01/09 01:02:29;;;;;;;;;9.00;8.25;;;;;13.42;51.50;98352.31;5966253;22;102988;-84
2021/01/09 01:04:58;;;;;;;;;12.00;10.00;;;;;13.41;51.55;98348.75;5968254;23;103342;-84
2021/01/09 01:07:34;;;;;;;;;11.25;8.00;;;;;13.40;51.34;98352.53;5968573;23;102570;-84
2021/01/09 01:10:05;;;;;;;;;11.25;9.00;;;;;13.39;50.76;98345.41;5964420;23;102580;-85
2021/01/09 01:12:34;;;;;;;;;8.75;7.75;;;;;13.38;51.18;98349.19;5978413;22;102756;-85
2021/01/09 01:15:01;;;;;;;;;10.75;10.00;;;;;13.37;51.31;98352.97;5971434;23;104231;-84
2021/01/09 01:17:28;;;;;;;;;9.50;8.25;;;;;13.34;50.78;98348.81;5970697;22;102571;-85
2021/01/09 01:19:54;;;;;;;;;9.50;8.25;;;;;13.35;51.39;98357.78;5968614;23;104296;-84
2021/01/09 01:22:21;;;;;;;;;12.50;10.75;;;;;13.33;51.16;98358.00;5943912;23;102984;-83
2021/01/09 01:24:48;;;;;;;;;11.00;8.50;;;;;13.32;51.15;98359.09;5974611;22;104340;-84
2021/01/09 01:27:16;;;;;;;;;12.25;8.50;;;;;13.32;51.12;98358.25;5965924;22;102429;-85
2021/01/09 01:29:42;;;;;;;;;8.25;7.25;;;;;13.30;51.24;98360.34;5970068;23;102560;-85
2021/01/09 01:32:09;;;;;;;;;8.00;6.50;;;;;13.28;50.83;98349.69;5971861;23;102680;-84
2021/01/09 01:34:36;;;;;;;;;10.00;8.00;;;;;13.28;51.29;98344.28;5971425;22;103826;-84
2021/01/09 01:37:02;;;;;;;;;12.25;10.75;;;;;13.28;51.12;98357.03;5970820;23;102847;-84
2021/01/09 01:39:29;;;;;;;;;11.00;8.00;;;;;13.26;50.93;98351.81;5971231;22;102709;-84
2021/01/09 01:41:56;;;;;;;;;7.00;7.00;;;;;13.25;50.93;98352.88;5973827;22;102788;-85
2021/01/09 01:44:23;;;;;;;;;12.25;8.75;;;;;13.24;51.54;98353.91;5976045;22;103993;-84
2021/01/09 01:46:50;;;;;;;;;8.25;7.75;;;;;13.23;51.22;98352.28;5972731;22;108284;-81
2021/01/09 01:49:16;;;;;;;;;15.75;9.00;;;;;13.24;50.95;98356.63;5973956;23;102788;-85
2021/01/09 01:51:43;;;;;;;;;9.50;8.25;;;;;13.22;51.26;98347.06;5969941;23;102952;-85
2021/01/09 01:54:13;;;;;;;;;13.25;8.75;;;;;13.21;51.40;98348.13;5968135;23;104389;-84
2021/01/09 01:56:40;;;;;;;;;11.50;8.25;;;;;13.20;50.86;98346.44;5987793;22;105478;-84
2021/01/09 01:59:06;;;;;;;;;8.75;7.50;;;;;13.19;51.65;98345.63;5973898;22;102885;-84
2021/01/09 02:01:33;;;;;;;;;8.50;8.50;;;;;13.18;51.55;98346.69;5989012;23;102862;-84
2021/01/09 02:04:00;;;;;;;;;9.50;8.50;;;;;13.18;51.61;98354.84;5951008;23;104106;-84
2021/01/09 02:06:29;;;;;;;;;10.00;8.25;;;;;13.17;50.75;98355.06;5964641;23;102599;-83
2021/01/09 02:09:10;;;;;;;;;10.00;8.00;;;;;13.15;51.23;98355.25;5960038;23;102909;-84
2021/01/09 02:11:38;;;;;;;;;8.50;7.50;;;;;13.14;51.27;98359.06;5965931;22;102856;-84
2021/01/09 02:14:09;;;;;;;;;10.50;8.75;;;;;13.13;50.76;98357.38;5966059;23;103898;-84
2021/01/09 02:16:36;;;;;;;;;7.75;7.00;;;;;13.13;51.43;98351.97;5970669;22;102500;-84
2021/01/09 02:19:06;;;;;;;;;9.00;8.00;;;;;13.13;51.19;98353.84;5963864;23;102545;-84
2021/01/09 02:21:42;;;;;;;;;10.25;8.25;;;;;13.11;50.74;98345.91;5939627;23;102764;-84
2021/01/09 02:24:17;;;;;;;;;7.75;7.00;;;;;13.11;51.06;98354.06;5967324;23;105335;-84
2021/01/09 02:26:44;;;;;;;;;13.25;8.75;;;;;13.10;51.08;98349.66;5966302;23;102749;-84
2021/01/09 02:29:11;;;;;;;;;9.00;8.00;;;;;13.06;50.51;98348.44;5971506;22;102729;-84
2021/01/09 02:32:05;;;;;;;;;10.25;7.00;;;;;13.08;51.66;98353.66;5967223;23;102728;-84
2021/01/09 02:34:40;;;;;;;;;8.75;6.75;;;;;13.07;50.58;98357.41;5843258;22;107470;-83
2021/01/09 02:37:10;;;;;;;;;5.00;4.25;;;;;13.06;51.60;98351.13;5958861;23;102791;-84
2021/01/09 02:39:37;;;;;;;;;8.00;5.75;;;;;13.04;51.16;98350.56;5968077;22;102793;-84
2021/01/09 02:42:04;;;;;;;;;9.00;6.00;;;;;13.04;50.63;98353.25;5968413;22;102983;-84
2021/01/09 02:44:31;;;;;;;;;9.75;8.50;;;;;13.04;50.82;98345.13;5968053;22;104406;-84
2021/01/09 02:46:59;;;;;;;;;7.25;6.25;;;;;13.03;50.58;98346.16;5965762;22;102602;-84
2021/01/09 02:49:26;;;;;;;;;8.25;7.00;;;;;13.00;50.85;98349.34;5970952;22;102732;-84
2021/01/09 02:51:53;;;;;;;;;5.75;5.00;;;;;13.01;51.56;98348.28;5971606;22;102858;-83
2021/01/09 02:54:19;;;;;;;;;8.50;8.00;;;;;13.00;50.75;98362.91;5970705;23;105707;-85
2021/01/09 02:56:46;;;;;;;;;8.75;7.75;;;;;12.98;50.54;98354.97;5969671;22;102858;-84
2021/01/09 02:59:13;;;;;;;;;6.00;6.00;;;;;12.97;51.14;98357.91;5970588;22;102642;-84
2021/01/09 03:01:40;;;;;;;;;8.75;6.00;;;;;12.95;51.38;98360.84;5973714;22;102895;-84
2021/01/09 03:04:07;;;;;;;;;7.00;6.50;;;;;12.96;51.55;98358.97;5971167;22;104248;-84
2021/01/09 03:06:33;;;;;;;;;8.00;8.00;;;;;12.95;51.02;98355.44;5973742;22;102915;-84
2021/01/09 03:09:02;;;;;;;;;8.00;7.00;;;;;12.94;51.32;98352.94;5966874;22;102490;-84
2021/01/09 03:11:28;;;;;;;;;8.75;7.00;;;;;12.94;51.22;98353.75;5971642;23;102813;-84
2021/01/09 03:13:55;;;;;;;;;6.00;5.00;;;;;12.93;50.92;98354.81;5967792;23;108449;-84
2021/01/09 03:16:22;;;;;;;;;8.00;7.00;;;;;12.93;50.75;98367.53;5967164;23;102685;-84
2021/01/09 03:18:49;;;;;;;;;7.75;7.00;;;;;12.92;50.80;98365.91;5969966;22;102873;-84
2021/01/09 03:21:16;;;;;;;;;9.25;7.50;;;;;12.93;50.61;98364.84;5971243;23;102794;-84
2021/01/09 03:23:42;;;;;;;;;6.25;5.50;;;;;12.90;50.54;98365.28;5967986;22;104206;-84
2021/01/09 03:26:09;;;;;;;;;10.00;6.75;;;;;12.89;51.54;98367.16;5966939;22;102621;-84
2021/01/09 03:28:36;;;;;;;;;8.00;6.50;;;;;12.89;50.73;98369.03;5994069;23;102790;-83
2021/01/09 03:31:02;;;;;;;;;7.50;6.00;;;;;12.88;50.97;98364.66;5965257;23;102845;-83
2021/01/09 03:33:30;;;;;;;;;6.75;5.75;;;;;12.87;51.37;98374.72;5963900;22;103951;-84
2021/01/09 03:35:56;;;;;;;;;6.50;5.50;;;;;12.87;51.60;98368.44;5967055;23;102536;-84
2021/01/09 03:38:23;;;;;;;;;5.75;5.75;;;;;12.86;51.23;98374.91;5964302;23;102607;-84
2021/01/09 03:40:50;;;;;;;;;8.75;5.75;;;;;12.85;50.64;98367.81;5974400;23;102936;-84
2021/01/09 03:43:16;;;;;;;;;6.00;5.75;;;;;12.85;50.74;98375.97;5969153;23;108631;-83
2021/01/09 03:45:43;;;;;;;;;5.25;5.00;;;;;12.82;51.45;98379.13;5969580;23;102766;-83
2021/01/09 03:48:10;;;;;;;;;5.75;5.00;;;;;12.83;51.43;98375.38;5965342;23;102826;-83
2021/01/09 03:50:36;;;;;;;;;7.75;6.75;;;;;12.82;51.26;98376.41;5993406;22;102632;-83
2021/01/09 03:53:03;;;;;;;;;6.00;6.00;;;;;12.81;51.29;98385.59;5931932;22;104531;-83
2021/01/09 03:55:30;;;;;;;;;7.75;7.50;;;;;12.81;51.57;98385.59;5943812;22;106137;-83
2021/01/09 03:57:57;;;;;;;;;6.50;6.25;;;;;12.80;50.62;98382.06;5969353;22;102770;-83
2021/01/09 04:00:24;;;;;;;;;5.75;5.25;;;;;12.80;50.46;98382.06;5972999;22;102968;-83
2021/01/09 04:02:50;;;;;;;;;5.00;4.25;;;;;12.79;50.87;98390.41;5971953;22;103906;-83
2021/01/09 04:05:17;;;;;;;;;6.75;5.00;;;;;12.79;51.29;98390.41;5974725;23;102533;-84
2021/01/09 04:07:43;;;;;;;;;6.00;5.00;;;;;12.78;50.80;98386.06;5969356;23;102434;-83
2021/01/09 04:10:10;;;;;;;;;5.50;5.00;;;;;12.77;50.84;98389.81;5965959;22;102763;-83
2021/01/09 04:12:37;;;;;;;;;9.50;6.75;;;;;12.76;51.15;98390.84;5971369;22;103761;-83
2021/01/09 04:15:05;;;;;;;;;7.00;5.00;;;;;12.76;51.40;98388.13;5971847;22;102973;-83
2021/01/09 04:17:32;;;;;;;;;5.75;5.50;;;;;12.75;51.36;98387.31;5973168;23;102564;-83
2021/01/09 04:19:59;;;;;;;;;4.75;4.75;;;;;12.75;51.37;98389.19;5965422;23;102763;-83
2021/01/09 04:22:26;;;;;;;;;7.50;4.25;;;;;12.73;51.17;98392.13;5972702;22;104747;-83
2021/01/09 04:24:52;;;;;;;;;7.00;5.00;;;;;12.73;50.88;98392.13;5975429;22;102853;-83
2021/01/09 04:27:19;;;;;;;;;6.50;6.50;;;;;12.72;51.09;98387.75;5972552;23;102744;-84
2021/01/09 04:29:46;;;;;;;;;7.00;5.50;;;;;12.73;50.41;98394.03;5970045;22;102747;-84
2021/01/09 04:32:12;;;;;;;;;7.25;6.25;;;;;12.71;51.21;98388.81;5964682;22;103923;-83
2021/01/09 04:34:40;;;;;;;;;6.50;6.00;;;;;12.71;50.68;98385.25;5975157;22;102454;-83
2021/01/09 04:37:07;;;;;;;;;5.00;4.00;;;;;12.71;50.90;98387.97;5966321;22;102822;-83
2021/01/09 04:39:33;;;;;;;;;5.00;5.00;;;;;12.70;51.38;98383.63;5951324;22;102812;-83
2021/01/09 04:42:00;;;;;;;;;7.50;5.75;;;;;12.69;51.24;98382.78;5921453;22;103534;-83
2021/01/09 04:44:27;;;;;;;;;6.00;5.00;;;;;12.69;50.81;98384.66;5890984;22;102491;-83
2021/01/09 04:46:55;;;;;;;;;6.50;5.50;;;;;12.68;51.21;98388.41;5961819;22;102587;-83
2021/01/09 04:49:26;;;;;;;;;5.25;5.00;;;;;12.66;51.06;98385.91;5969477;23;104106;-83
2021/01/09 04:51:53;;;;;;;;;6.00;5.00;;;;;12.67;50.60;98392.16;5970124;23;104150;-83
2021/01/09 04:54:21;;;;;;;;;5.75;5.75;;;;;12.66;50.43;98395.94;5969267;22;102448;-84
2021/01/09 04:56:49;;;;;;;;;7.25;5.25;;;;;12.66;50.67;98398.63;5970577;22;102753;-84
2021/01/09 04:59:16;;;;;;;;;6.00;5.50;;;;;12.64;51.07;98406.19;5974048;22;102776;-83
2021/01/09 05:01:44;;;;;;;;;5.25;4.25;;;;;12.63;50.60;98404.50;5969214;22;104137;-83
2021/01/09 05:04:11;;;;;;;;;5.00;5.00;;;;;12.63;50.85;98405.34;5966356;23;102577;-83
2021/01/09 05:06:41;;;;;;;;;6.00;5.00;;;;;12.64;51.08;98411.59;5969302;23;102931;-84
2021/01/09 05:09:09;;;;;;;;;10.00;6.00;;;;;12.61;50.54;98415.56;5973986;22;102614;-84
2021/01/09 05:11:36;;;;;;;;;7.00;5.75;;;;;12.61;51.41;98415.56;5969988;22;104136;-83
2021/01/09 05:14:06;;;;;;;;;6.00;3.00;;;;;12.61;51.17;98423.72;5973819;22;102874;-83
2021/01/09 05:16:34;;;;;;;;;4.00;4.00;;;;;12.60;50.63;98418.53;5968889;23;102565;-83
2021/01/09 05:19:01;;;;;;;;;5.75;4.00;;;;;12.60;51.57;98423.94;5968745;23;102797;-84
2021/01/09 05:21:28;;;;;;;;;5.50;5.00;;;;;12.56;50.65;98420.00;5966781;22;105829;-83
2021/01/09 05:23:59;;;;;;;;;5.50;5.50;;;;;12.56;51.22;98425.44;5973693;23;102532;-83
2021/01/09 05:26:27;;;;;;;;;4.50;4.25;;;;;12.56;51.24;98428.16;5970825;22;104232;-84
2021/01/09 05:28:56;;;;;;;;;5.50;5.00;;;;;12.55;51.08;98419.19;5974432;22;102868;-83
2021/01/09 05:31:24;;;;;;;;;8.25;7.00;;;;;12.56;50.81;98433.56;5968593;23;103638;-83
2021/01/09 05:33:51;;;;;;;;;6.25;5.00;;;;;12.55;51.35;98429.19;5974289;23;102535;-83
2021/01/09 05:36:18;;;;;;;;;6.75;6.00;;;;;12.53;51.33;98430.22;5975048;23;102781;-83
2021/01/09 05:38:46;;;;;;;;;4.00;4.00;;;;;12.53;51.08;98438.38;5972170;22;102847;-83
2021/01/09 05:41:14;;;;;;;;;6.75;4.50;;;;;12.52;51.19;98435.88;5969697;22;103759;-83
2021/01/09 05:43:41;;;;;;;;;4.25;4.00;;;;;12.52;50.60;98441.28;5969530;23;102593;-83
2021/01/09 05:46:07;;;;;;;;;5.50;4.00;;;;;12.52;50.83;98442.13;5969141;23;102826;-83
2021/01/09 05:48:36;;;;;;;;;5.50;4.50;;;;;12.52;50.77;98441.28;5975869;22;102793;-83
2021/01/09 05:51:06;;;;;;;;;4.50;4.25;;;;;12.51;50.85;98440.47;5968676;23;104252;-83
2021/01/09 05:53:45;;;;;;;;;5.50;4.00;;;;;12.47;50.39;98447.38;5968124;23;102793;-83
2021/01/09 05:56:14;;;;;;;;;6.50;4.50;;;;;12.49;50.90;98458.00;5974015;23;102435;-83
2021/01/09 05:58:41;;;;;;;;;5.50;5.00;;;;;12.49;51.31;98458.84;5971379;23;102818;-84
2021/01/09 06:01:08;;;;;;;;;5.00;4.50;;;;;12.48;50.57;98459.88;5969507;22;104081;-83
2021/01/09 06:03:39;;;;;;;;;6.00;4.25;;;;;12.48;51.11;98461.75;5971800;23;102778;-83
2021/01/09 06:06:31;;;;;;;;;4.25;4.00;;;;;12.47;51.34;98462.84;5969739;22;105944;-84
2021/01/09 06:09:02;;;;;;;;;5.25;5.00;;;;;12.47;51.22;98466.34;5871363;22;102655;-83
2021/01/09 06:11:30;;;;;;;;;4.00;4.00;;;;;12.46;50.97;98478.25;5974756;23;104773;-83
2021/01/09 06:14:01;;;;;;;;;5.00;3.00;;;;;12.45;51.22;98471.16;5969460;23;102677;-83
2021/01/09 06:16:29;;;;;;;;;7.00;6.00;;;;;12.45;51.13;98478.47;5946713;23;102850;-83
2021/01/09 06:18:57;;;;;;;;;5.00;4.75;;;;;12.43;50.86;98478.69;5942711;23;102902;-84
2021/01/09 06:21:28;;;;;;;;;5.50;4.75;;;;;12.44;50.78;98476.81;5969874;22;103925;-83
2021/01/09 06:23:55;;;;;;;;;5.00;4.00;;;;;12.42;51.29;98478.91;5975683;22;102750;-83
2021/01/09 06:26:22;;;;;;;;;5.50;4.00;;;;;12.43;50.63;98496.81;5973649;23;102667;-83
2021/01/09 06:28:55;;;;;;;;;6.50;4.75;;;;;12.41;51.26;98497.06;5974249;22;102806;-84
2021/01/09 06:31:23;;;;;;;;;4.25;4.00;;;;;12.41;51.32;98494.34;5969451;22;108858;-83
2021/01/09 06:33:51;;;;;;;;;6.25;5.50;;;;;12.40;50.44;98492.69;5976937;22;102565;-84
2021/01/09 06:36:18;;;;;;;;;6.50;5.00;;;;;12.38;50.92;98494.75;5958243;23;102817;-84
2021/01/09 06:38:47;;;;;;;;;7.00;5.25;;;;;12.40;51.41;98502.69;5952116;22;102806;-84
2021/01/09 06:41:15;;;;;;;;;4.25;4.25;;;;;12.39;50.79;98495.59;5955743;22;104413;-84
2021/01/09 06:43:52;;;;;;;;;6.25;4.25;;;;;12.38;51.23;98508.31;5969921;23;102746;-84
2021/01/09 06:46:32;;;;;;;;;5.75;4.00;;;;;12.37;51.18;98508.56;5971122;23;102804;-84
2021/01/09 06:48:59;;;;;;;;;4.00;4.00;;;;;12.37;51.56;98520.22;5898627;22;102369;-84
2021/01/09 06:51:32;;;;;;;;;3.75;3.75;;;;;12.37;50.64;98525.66;5971018;22;104025;-83
2021/01/09 06:54:14;;;;;;;;;5.00;5.00;;;;;12.36;50.61;98523.97;5973788;22;102495;-84
2021/01/09 06:56:45;;;;;;;;;4.50;4.50;;;;;12.34;51.13;98534.19;5972363;22;102774;-84
2021/01/09 06:59:33;;;;;;;;;5.75;5.25;;;;;12.33;51.05;98529.84;5970448;22;102885;-84
2021/01/09 07:02:19;;;;;;;;;4.00;3.75;;;;;12.34;51.38;98536.91;5848747;22;108637;-84
2021/01/09 07:04:52;;;;;;;;;7.00;4.75;;;;;12.34;51.13;98538.78;5970201;23;102769;-84
2021/01/09 07:07:31;;;;;;;;;7.00;6.00;;;;;12.33;51.19;98539.84;5967782;22;102800;-84
2021/01/09 07:10:07;;;;;;;;;6.00;5.75;;;;;12.32;50.68;98541.72;5881792;22;102820;-84
2021/01/09 07:12:34;;;;;;;;;6.50;6.00;;;;;12.32;50.57;98538.19;5968574;22;103870;-83
2021/01/09 07:15:03;;;;;;;;;7.00;5.75;;;;;12.32;51.40;98552.56;5965491;22;102722;-83
2021/01/09 07:17:32;;;;;;;;;5.75;5.00;;;;;12.31;51.17;98558.19;5970282;22;102948;-83
2021/01/09 07:20:05;;;;;;;;;7.00;6.00;;;;;12.30;51.27;98557.34;5970597;23;102798;-84
2021/01/09 07:22:32;;;;;;;;;6.00;4.25;;;;;12.30;51.08;98554.66;5965363;23;103924;-83
2021/01/09 07:25:00;;;;;;;;;5.00;4.25;;;;;12.30;51.46;98562.78;5966229;23;102585;-84
2021/01/09 07:27:46;;;;;;;;;4.75;3.75;;;;;12.28;51.47;98559.47;5964202;23;102647;-89
2021/01/09 07:30:17;;;;;;;;;4.75;4.75;;;;;12.29;50.78;98560.31;5970548;23;108189;-78
2021/01/09 07:32:48;;;;;;;;;4.50;4.50;;;;;12.27;50.62;98568.63;5968523;22;103802;-78
2021/01/09 07:35:27;;;;;;;;;8.50;5.50;;;;;12.27;51.27;98563.22;5970897;22;102658;-78
2021/01/09 07:37:58;;;;;;;;;6.00;5.00;;;;;12.27;50.56;98565.94;5970848;22;102655;-78
2021/01/09 07:40:25;;;;;;;;;4.75;4.00;;;;;12.27;50.54;98568.63;5993785;23;102866;-78
2021/01/09 07:42:51;;;;;;;;;5.75;4.75;;;;;12.25;51.45;98564.47;5966438;22;103902;-78
2021/01/09 07:45:20;;;;;;;;;7.00;5.25;;;;;12.25;50.60;98573.44;5944535;22;102837;-78
2021/01/09 07:47:48;;;;;;;;;5.25;5.00;;;;;12.25;51.42;98575.31;5939186;22;102580;-79
2021/01/09 07:50:17;;;;;;;;;6.25;5.00;;;;;12.26;50.53;98582.41;5940848;22;102850;-78
2021/01/09 07:52:44;;;;;;;;;5.00;5.00;;;;;12.25;50.82;98581.56;5973135;22;104313;-79
2021/01/09 07:55:15;;;;;;;;;5.00;4.50;;;;;12.24;51.07;98584.50;5947739;22;102596;-79
2021/01/09 07:57:42;;;;;;;;;5.50;5.00;;;;;12.24;51.07;98576.38;5967923;22;102761;-79
2021/01/09 08:00:12;;;;;;;;;5.25;5.25;;;;;12.23;51.30;98580.97;5942502;22;102619;-79
2021/01/09 08:02:44;;;;;;;;;4.25;4.00;;;;;12.23;50.58;98574.69;5961721;23;103916;-79
2021/01/09 08:05:15;;;;;;;;;6.75;5.25;;;;;12.22;51.57;98579.28;5974401;22;102516;-80
2021/01/09 08:07:45;;;;;;;;;5.00;4.50;;;;;12.23;51.53;98575.53;5969144;22;102832;-78
2021/01/09 08:10:19;;;;;;;;;6.00;6.00;;;;;12.23;51.57;98575.53;5973042;23;102891;-79
2021/01/09 08:12:47;;;;;;;;;5.00;4.25;;;;;12.24;50.77;98584.50;5972423;22;103913;-79
2021/01/09 08:15:14;;;;;;;;;5.75;5.00;;;;;12.23;50.88;98578.25;5973984;22;104082;-79
2021/01/09 08:17:41;;;;;;;;;6.50;5.50;;;;;12.23;51.29;98583.66;5973236;22;102828;-79
2021/01/09 08:20:10;;;;;;;;;6.75;4.75;;;;;12.23;51.28;98586.38;5973173;22;102740;-87
2021/01/09 08:22:37;;;;;;;;;7.00;6.00;;;;;12.23;50.78;98589.09;5971169;22;104508;-79
2021/01/09 08:25:09;;;;;;;;;6.50;5.75;;;;;12.24;51.38;98592.63;5969047;23;102825;-80
2021/01/09 08:27:45;;;;;;;;;5.50;5.25;;;;;12.23;51.45;98594.50;5971798;22;102575;-83
2021/01/09 08:30:13;;;;;;;;;9.00;6.50;;;;;12.24;51.96;98592.63;5974108;23;102551;-84
2021/01/09 08:32:40;;;;;;;;;9.50;7.25;;;;;12.23;51.01;98589.09;5972722;22;104504;-85
2021/01/09 08:35:08;;;;;;;;;10.25;8.50;;;;;12.23;52.02;98591.81;5971071;22;102821;-82
2021/01/09 08:37:36;;;;;;;;;9.25;8.25;;;;;12.24;51.58;98590.75;5971837;22;102517;-81
2021/01/09 08:40:31;;;;;;;;;11.50;8.25;;;;;12.23;51.13;98582.84;5974539;22;107484;-81
2021/01/09 08:43:08;;;;;;;;;10.25;9.75;;;;;12.24;51.59;98596.19;5903794;22;108640;-81
2021/01/09 08:45:42;;;;;;;;;8.50;8.00;;;;;12.25;51.25;98600.53;5976729;22;102807;-82
2021/01/09 08:48:29;;;;;;;;;8.00;7.75;;;;;12.24;50.71;98598.91;5974390;22;102856;-81
2021/01/09 08:51:11;;;;;;;;;6.00;6.00;;;;;12.24;50.86;98601.59;5988820;23;102819;-81
2021/01/09 08:53:59;;;;;;;;;8.00;6.25;;;;;12.24;50.56;98612.44;5961831;23;104251;-83
2021/01/09 08:56:30;;;;;;;;;9.00;7.50;;;;;12.26;51.05;98609.50;5968756;22;102738;-82
2021/01/09 08:59:01;;;;;;;;;9.00;8.00;;;;;12.25;51.00;98613.25;5975242;22;102485;-83
2021/01/09 09:01:37;;;;;;;;;9.75;8.75;;;;;12.25;50.54;98618.69;5976153;23;102847;-83
2021/01/09 09:04:04;;;;;;;;;7.75;7.00;;;;;12.25;50.68;98608.66;5938778;23;104396;-83
2021/01/09 09:06:32;;;;;;;;;9.50;8.00;;;;;12.22;50.18;98605.56;5971298;23;102771;-83
2021/01/09 09:09:00;;;;;;;;;9.00;9.00;;;;;12.25;50.68;98607.84;5971409;23;102862;-83
2021/01/09 09:11:26;;;;;;;;;5.50;5.25;;;;;12.23;50.06;98608.06;5973825;22;102886;-83
2021/01/09 09:14:11;;;;;;;;;13.00;9.00;;;;;12.24;49.99;98608.91;5981385;22;104417;-84
2021/01/09 09:16:38;;;;;;;;;8.75;7.75;;;;;12.23;49.86;98608.06;5867118;22;102814;-83
2021/01/09 09:19:14;;;;;;;;;7.75;6.75;;;;;12.22;50.36;98609.09;5943267;22;102811;-83
2021/01/09 09:21:57;;;;;;;;;8.00;8.00;;;;;12.23;49.66;98609.94;5947663;22;102585;-83
2021/01/09 09:24:40;;;;;;;;;9.25;7.00;;;;;12.22;50.42;98609.09;5920372;22;110162;-81
2021/01/09 09:27:23;;;;;;;;;8.50;7.00;;;;;12.22;49.73;98609.09;5928902;22;102853;-83
2021/01/09 09:30:11;;;;;;;;;8.00;7.00;;;;;12.21;50.59;98601.16;5975054;22;102790;-83
2021/01/09 09:32:39;;;;;;;;;10.50;8.50;;;;;12.21;49.77;98602.00;5854247;22;102846;-83
2021/01/09 09:35:24;;;;;;;;;7.50;6.00;;;;;12.20;49.67;98604.94;5975647;22;104538;-84
2021/01/09 09:37:51;;;;;;;;;8.00;7.00;;;;;12.19;50.05;98612.25;5974083;22;102499;-83
2021/01/09 09:40:25;;;;;;;;;8.25;5.25;;;;;12.19;49.71;98612.25;5976225;22;102623;-83
2021/01/09 09:42:52;;;;;;;;;7.75;7.25;;;;;12.19;50.07;98614.97;5978203;22;102599;-84
2021/01/09 09:45:19;;;;;;;;;6.25;4.75;;;;;12.18;50.12;98607.03;5956910;22;108783;-79
2021/01/09 09:47:49;;;;;;;;;7.25;6.50;;;;;12.17;50.00;98608.91;5978197;22;102768;-79
2021/01/09 09:50:20;;;;;;;;;7.00;6.50;;;;;12.17;50.07;98606.19;5975348;23;102520;-79
2021/01/09 09:53:00;;;;;;;;;9.25;6.75;;;;;12.16;49.91;98609.94;5977584;22;103010;-79
2021/01/09 09:55:27;;;;;;;;;9.25;8.00;;;;;12.17;50.02;98611.63;6096447;22;108456;-79
2021/01/09 09:58:08;;;;;;;;;6.50;6.00;;;;;12.16;49.74;98609.94;5946217;23;102687;-79
2021/01/09 10:00:44;;;;;;;;;8.50;5.50;;;;;12.16;49.17;98612.66;5879443;23;102789;-79
2021/01/09 10:03:11;;;;;;;;;6.75;6.00;;;;;12.15;49.63;98608.28;5967100;23;102934;-84
2021/01/09 10:05:38;;;;;;;;;9.75;8.25;;;;;12.16;50.04;98603.72;5964491;23;103615;-85
2021/01/09 10:08:14;;;;;;;;;8.25;7.50;;;;;12.15;50.43;98602.88;5972451;22;103011;-85
2021/01/09 10:10:42;;;;;;;;;10.25;8.75;;;;;12.16;50.72;98603.72;5969961;22;102680;-85
2021/01/09 10:13:09;;;;;;;;;8.25;6.25;;;;;12.16;50.72;98603.72;5972311;22;102845;-85
2021/01/09 10:15:37;;;;;;;;;8.75;6.00;;;;;12.15;50.52;98597.44;5968529;23;103801;-85
2021/01/09 10:18:03;;;;;;;;;12.00;8.75;;;;;12.15;49.79;98600.16;5968004;22;102714;-85
2021/01/09 10:20:30;;;;;;;;;10.75;9.00;;;;;12.16;50.31;98601.00;5976460;22;102767;-84
2021/01/09 10:22:57;;;;;;;;;12.75;7.00;;;;;12.16;49.57;98603.72;5974160;22;102922;-84
2021/01/09 10:25:24;;;;;;;;;9.00;8.00;;;;;12.15;49.70;98597.44;5977877;23;104066;-85
2021/01/09 10:27:51;;;;;;;;;7.25;7.25;;;;;12.14;49.79;98597.66;5977077;22;102497;-85
2021/01/09 10:30:19;;;;;;;;;9.75;8.25;;;;;12.15;49.95;98602.03;5967388;23;102600;-85
2021/01/09 10:32:45;;;;;;;;;6.00;5.00;;;;;12.15;49.57;98597.44;5975722;23;102862;-85
2021/01/09 10:35:12;;;;;;;;;5.75;5.75;;;;;12.15;49.93;98605.59;5974487;22;103894;-85
2021/01/09 10:37:39;;;;;;;;;8.00;7.25;;;;;12.15;50.05;98602.03;5975738;22;102794;-85
2021/01/09 10:40:06;;;;;;;;;8.00;7.00;;;;;12.14;49.52;98601.19;5972282;22;102504;-85
2021/01/09 10:42:33;;;;;;;;;9.25;8.25;;;;;12.14;50.03;98600.38;5972242;23;103159;-85
2021/01/09 10:45:00;;;;;;;;;9.00;7.00;;;;;12.14;49.29;98600.38;5974279;22;104347;-85
2021/01/09 10:47:26;;;;;;;;;6.75;6.75;;;;;12.13;49.37;98599.53;5995804;22;102829;-85
2021/01/09 10:50:13;;;;;;;;;7.50;6.25;;;;;12.13;49.57;98596.81;5968974;22;102793;-86
2021/01/09 10:52:40;;;;;;;;;8.00;7.75;;;;;12.10;49.91;98594.53;5972998;22;102864;-87
2021/01/09 10:55:07;;;;;;;;;9.75;8.00;;;;;12.13;51.01;98591.41;5965164;22;104357;-84
2021/01/09 10:57:34;;;;;;;;;13.00;10.25;;;;;12.26;51.91;98594.09;5968815;22;102549;-80
2021/01/09 11:00:07;;;;;;;;;12.00;9.50;;;;;12.51;53.31;98597.78;5967593;23;102783;-76
2021/01/09 11:02:34;;;;;;;;;9.50;9.00;;;;;12.66;53.29;98596.66;5973066;22;102740;-79
2021/01/09 11:05:01;;;;;;;;;12.25;10.50;;;;;12.77;53.24;98598.72;5972822;23;104015;-75
2021/01/09 11:07:27;;;;;;;;;13.25;10.25;;;;;12.87;52.60;98588.25;5968227;23;102809;-75
2021/01/09 11:09:54;;;;;;;;;13.50;9.50;;;;;12.99;53.46;98589.22;5970302;23;102810;-76
2021/01/09 11:12:23;;;;;;;;;14.75;12.50;;;;;13.08;53.10;98593.34;5975578;22;102866;-77
2021/01/09 11:14:52;;;;;;;;;11.50;11.50;;;;;13.18;52.62;98599.19;5973924;22;109354;-76
2021/01/09 11:17:19;;;;;;;;;17.25;15.25;;;;;13.26;52.59;98595.38;5975281;22;102542;-76
2021/01/09 11:19:45;;;;;;;;;10.25;10.00;;;;;13.36;51.94;98606.59;5975810;22;102792;-76
2021/01/09 11:22:12;;;;;;;;;14.25;13.50;;;;;13.44;51.62;98605.50;5975622;22;102767;-75
2021/01/09 11:24:39;;;;;;;;;21.50;16.00;;;;;13.51;52.15;98607.09;5964982;22;103984;-81
2021/01/09 11:27:06;;;;;;;;;15.00;14.00;;;;;13.61;52.09;98609.34;5973875;22;102835;-80
2021/01/09 11:29:33;;;;;;;;;27.00;20.25;;;;;13.72;51.66;98605.91;5975606;23;102982;-75
2021/01/09 11:32:03;;;;;;;;;23.50;20.75;;;;;13.80;52.30;98598.31;5974199;22;102831;-75